الصفحة الرئيسية
METAR-TAF:

METAR-TAF

مطار :

مطار وجدة أنجاد

وجدة, المغرب

دائرة عرض: 34-47N, خط طول: 001-56W, ارتفاع: 468 متر

مراقبة الطقس الحالي

تاريخ ووقت الإصدار 13 دقيقة قبل الساعة 20:00UTC
ريح 4 عقدة من الغرب/الشمال الغربي, الاتجاه يتراوح بين الغرب و الشمال/الشمال الغربي
درجة الحرارة 11°درجة مئوية
الرطوبة 100%
ضغط 1006 hPa
الرؤية: 6000 متر
غيوم متفرقة على ارتفاع 2000 قدم
غيوم مفككة على ارتفاع 4000 قدم

METAR: GMFO 212000Z 29004KT 260V330 6000 SCT020 BKN040 11/11 Q1006 RERA NOSIG

زمن: 21:13 (20:13 UTC)

توقعات

تاريخ ووقت الإصدار 3ساعات و 13 دقيقة قبل الساعة 17:00UTC
التوقعات صالحة من21 الساعة 18 UTC إلى 22 الساعة 24 UTC
ريح 13 عقدة من الغرب/الشمال الغربي
الرؤية: 6000 متر
غيوم متفرقة على ارتفاع 1000 قدم
غيوم مفككة على ارتفاع 3300 قدم
مطر
أصبح
من 22 الساعة 02 UTC إلى 22 الساعة 06 UTC
ريح 8 عقدة من الجنوب/الجنوب الغربي
غيوم متفرقة على ارتفاع 1000 قدم
غيوم متفرقة على ارتفاع 4000 قدم
مطر

TAF: GMFO 211700Z 2118/2224 29013KT 6000 RA SCT010 BKN033 BECMG 2202/2206 20008KT RA SCT010 SCT040

أرصاد الطقس والتوقعات من أكثر من 4000 مطار (تقارير الطقس للمطار METAR والتنبؤ بالطقس بالمطارTAF).

المحطات المتاحة هي النقط الصفراء والحمراء على الخريطة.

حرك المؤشر فوق النقطة لمعرفة اسم المحطة.

ثم انقر لمعرفة أرصاد وتوقعات الطقس.

لتغيير الخارطة: اضغط على الأزرار الخضراء مع رمز الصليب الأسود للتكبير. على الزر الأخضر مع شرطة للتصغير، أو على الأسهم الخضراء للخرائط المجاورة.


METAR-TAF: